createdAt,value
2019-06-08T00:00:16.657Z,100988.08
2019-06-08T00:02:50.009Z,100988.52
2019-06-08T00:05:23.256Z,100988.52
2019-06-08T00:08:06.375Z,100996.72
2019-06-08T00:10:39.852Z,101005.27
2019-06-08T00:13:15.165Z,101000.61
2019-06-08T00:15:49.135Z,100999.51
2019-06-08T00:18:23.592Z,100990.30
2019-06-08T00:20:57.563Z,100997.10
2019-06-08T00:23:31.390Z,101026.83
2019-06-08T00:26:04.664Z,101038.78
2019-06-08T00:28:37.990Z,101040.91
2019-06-08T00:31:11.577Z,101014.00
2019-06-08T00:33:45.347Z,100993.92
2019-06-08T00:36:18.795Z,100985.03
2019-06-08T00:38:52.551Z,100986.95
2019-06-08T00:41:26.511Z,100996.45
2019-06-08T00:44:13.637Z,100991.38
2019-06-08T00:46:46.876Z,100976.28
2019-06-08T00:49:31.056Z,100988.12
2019-06-08T00:52:04.518Z,100976.33
2019-06-08T00:54:38.019Z,100969.80
2019-06-08T00:57:21.804Z,100927.63
2019-06-08T01:00:10.317Z,100946.26
2019-06-08T01:02:50.770Z,100914.55
2019-06-08T01:05:33.706Z,100896.11
2019-06-08T01:08:07.099Z,100926.59
2019-06-08T01:10:40.835Z,100985.38
2019-06-08T01:13:14.395Z,100973.26
2019-06-08T01:15:48.354Z,100981.38
2019-06-08T01:18:22.931Z,100975.97
2019-06-08T01:20:57.175Z,100975.97
2019-06-08T01:23:32.009Z,100980.77
2019-06-08T01:26:06.018Z,100988.13
2019-06-08T01:28:39.346Z,100988.58
2019-06-08T01:31:14.436Z,100966.38
2019-06-08T01:33:48.744Z,100971.17
2019-06-08T01:36:37.258Z,100956.66
2019-06-08T01:39:11.200Z,100971.74
2019-06-08T01:41:46.695Z,100932.76
2019-06-08T01:44:21.461Z,100959.80
2019-06-08T01:47:04.577Z,100965.75
2019-06-08T01:49:38.443Z,100962.14
2019-06-08T01:52:11.627Z,100956.46
2019-06-08T01:54:44.861Z,100966.77
2019-06-08T01:57:18.936Z,100961.30
2019-06-08T01:59:52.911Z,100963.20
2019-06-08T02:02:27.864Z,100966.36
2019-06-08T02:05:01.523Z,100969.32
2019-06-08T02:07:35.046Z,100970.70
2019-06-08T02:10:08.880Z,100977.19
2019-06-08T02:12:42.402Z,100984.98
2019-06-08T02:15:16.550Z,100991.73
2019-06-08T02:18:02.590Z,101006.13
2019-06-08T02:20:35.967Z,100990.29
2019-06-08T02:23:25.004Z,100986.84
2019-06-08T02:25:58.921Z,100985.02
2019-06-08T02:28:32.124Z,100981.51
2019-06-08T02:31:05.842Z,100983.06
2019-06-08T02:33:40.509Z,100984.64
2019-06-08T02:36:14.443Z,100996.05
2019-06-08T02:38:47.786Z,101011.70
2019-06-08T02:41:21.443Z,101014.73
2019-06-08T02:43:55.142Z,101009.38
2019-06-08T02:46:29.051Z,101013.20
2019-06-08T02:49:13.817Z,101006.79
2019-06-08T02:51:47.178Z,101004.70
2019-06-08T02:54:32.435Z,101012.72
2019-06-08T02:57:06.629Z,101012.53
2019-06-08T02:59:40.829Z,101006.03
2019-06-08T03:02:31.522Z,101018.94
2019-06-08T03:05:05.950Z,101026.36
2019-06-08T03:07:42.900Z,101013.09
2019-06-08T03:10:26.711Z,101003.97
2019-06-08T03:13:11.838Z,101007.48
2019-06-08T03:15:45.711Z,101021.14
2019-06-08T03:18:31.451Z,101010.18
2019-06-08T03:21:14.470Z,101000.73
2019-06-08T03:23:48.756Z,101007.35
2019-06-08T03:26:22.100Z,101014.41
2019-06-08T03:29:05.151Z,101019.02
2019-06-08T03:31:47.782Z,101011.77
2019-06-08T03:34:26.240Z,101010.51
2019-06-08T03:37:09.812Z,101013.73
2019-06-08T03:39:53.033Z,101018.88
2019-06-08T03:42:26.674Z,101019.55
2019-06-08T03:45:00.208Z,101020.64
2019-06-08T03:47:34.612Z,101022.15
2019-06-08T03:50:18.110Z,101020.64
2019-06-08T03:53:02.621Z,101018.23
2019-06-08T03:55:37.801Z,101036.15
2019-06-08T03:58:12.147Z,101042.55
2019-06-08T04:00:47.118Z,101048.79
2019-06-08T04:03:20.884Z,101042.06
2019-06-08T04:05:54.010Z,101025.84
2019-06-08T04:08:27.638Z,101021.75
2019-06-08T04:11:01.072Z,101031.43
2019-06-08T04:13:35.095Z,101043.56
2019-06-08T04:16:09.071Z,101040.27
2019-06-08T04:18:52.256Z,101040.93
2019-06-08T04:21:26.306Z,101049.95
2019-06-08T04:24:00.021Z,101051.09
2019-06-08T04:26:45.018Z,101047.32
2019-06-08T04:29:18.932Z,101042.48
2019-06-08T04:32:02.951Z,101028.12
2019-06-08T04:34:47.469Z,101018.86
2019-06-08T04:37:31.886Z,101022.72
2019-06-08T04:40:15.798Z,101032.80
2019-06-08T04:42:59.466Z,101034.67
2019-06-08T04:45:45.856Z,101044.70
2019-06-08T04:48:19.860Z,101060.47
2019-06-08T04:51:03.036Z,101056.59
2019-06-08T04:53:38.459Z,101050.53
2019-06-08T04:56:12.853Z,101061.85
2019-06-08T04:58:56.375Z,101058.14
2019-06-08T05:01:40.900Z,101078.77
2019-06-08T05:04:14.683Z,101084.52
2019-06-08T05:06:49.450Z,101080.73
2019-06-08T05:09:23.139Z,101079.88
2019-06-08T05:11:56.624Z,101105.36
2019-06-08T05:14:30.945Z,101104.04
2019-06-08T05:17:04.620Z,101104.04
2019-06-08T05:19:50.316Z,101091.47
2019-06-08T05:22:33.615Z,101095.17
2019-06-08T05:25:07.236Z,101079.67
2019-06-08T05:27:52.580Z,101085.16
2019-06-08T05:30:28.059Z,101087.47
2019-06-08T05:33:01.342Z,101091.02
2019-06-08T05:35:35.055Z,101094.78
2019-06-08T05:38:18.986Z,101096.66
2019-06-08T05:40:53.935Z,101099.27
2019-06-08T05:43:27.151Z,101107.87
2019-06-08T05:46:01.052Z,101098.75
2019-06-08T05:48:34.645Z,101092.53
2019-06-08T05:51:08.887Z,101094.34
2019-06-08T05:53:52.635Z,101085.86
2019-06-08T05:56:35.611Z,101098.33
2019-06-08T05:59:10.025Z,101094.34
2019-06-08T06:01:53.466Z,101104.17
2019-06-08T06:04:37.046Z,101106.65
2019-06-08T06:07:10.382Z,101104.55
2019-06-08T06:09:45.123Z,101112.09
2019-06-08T06:12:18.788Z,101113.22
2019-06-08T06:14:52.423Z,101103.59
2019-06-08T06:17:26.043Z,101105.33
2019-06-08T06:19:59.540Z,101113.83
2019-06-08T06:22:33.403Z,101116.08
2019-06-08T06:25:06.900Z,101119.98
2019-06-08T06:27:41.379Z,101119.77
2019-06-08T06:30:24.953Z,101122.21
2019-06-08T06:33:08.877Z,101128.17
2019-06-08T06:35:52.360Z,101128.85
2019-06-08T06:38:25.717Z,101121.36
2019-06-08T06:40:59.854Z,101123.72
2019-06-08T06:43:50.393Z,101133.12
2019-06-08T06:46:24.270Z,101135.14
2019-06-08T06:48:58.249Z,101136.02
2019-06-08T06:51:42.347Z,101140.14
2019-06-08T06:54:25.335Z,101140.75
2019-06-08T06:57:00.048Z,101132.61
2019-06-08T06:59:33.637Z,101139.49
2019-06-08T07:02:07.220Z,101143.68
2019-06-08T07:04:40.618Z,101130.11
2019-06-08T07:07:14.132Z,101139.89
2019-06-08T07:09:48.414Z,101145.59
2019-06-08T07:12:22.288Z,101151.02
2019-06-08T07:14:55.632Z,101163.58
2019-06-08T07:17:29.584Z,101157.25
2019-06-08T07:20:03.311Z,101161.31
2019-06-08T07:22:48.060Z,101161.70
2019-06-08T07:25:22.105Z,101149.91
2019-06-08T07:27:55.778Z,101178.67
2019-06-08T07:30:29.992Z,101178.67
2019-06-08T07:33:03.852Z,101177.13
2019-06-08T07:35:40.969Z,101182.38
2019-06-08T07:38:14.639Z,101182.38
2019-06-08T07:40:48.850Z,101188.32
2019-06-08T07:43:23.324Z,101181.39
2019-06-08T07:45:58.453Z,101187.90
2019-06-08T07:48:32.048Z,101203.69
2019-06-08T07:51:05.542Z,101210.84
2019-06-08T07:53:39.293Z,101204.86
2019-06-08T07:56:13.304Z,101200.77
2019-06-08T07:58:49.516Z,101204.08
2019-06-08T08:01:35.271Z,101221.17
2019-06-08T08:04:13.347Z,101233.14
2019-06-08T08:06:48.271Z,101230.94
2019-06-08T08:09:22.070Z,101234.55
2019-06-08T08:11:55.429Z,101240.03
2019-06-08T08:14:28.889Z,101235.92
2019-06-08T08:17:02.506Z,101245.74
2019-06-08T08:19:36.661Z,101248.09
2019-06-08T08:22:21.941Z,101262.30
2019-06-08T08:25:04.129Z,101262.59
2019-06-08T08:27:47.884Z,101262.30
2019-06-08T08:30:21.372Z,101261.52
2019-06-08T08:33:07.570Z,101270.70
2019-06-08T08:35:52.130Z,101285.59
2019-06-08T08:38:40.990Z,101279.50
2019-06-08T08:41:13.950Z,101279.50
2019-06-08T08:44:00.827Z,101286.12
2019-06-08T08:46:43.164Z,101287.23
2019-06-08T08:49:18.218Z,101297.31
2019-06-08T08:51:52.210Z,101293.79
2019-06-08T08:54:37.698Z,101282.14
2019-06-08T08:57:10.638Z,101282.14
2019-06-08T08:59:43.887Z,101302.61
2019-06-08T09:02:21.266Z,101301.27
2019-06-08T09:05:03.954Z,101298.13
2019-06-08T09:07:38.558Z,101316.49
2019-06-08T09:10:12.721Z,101318.40
2019-06-08T09:13:01.667Z,101332.95
2019-06-08T09:15:33.944Z,101332.95
2019-06-08T09:18:18.760Z,101325.91
2019-06-08T09:20:53.868Z,101338.26
2019-06-08T09:23:28.124Z,101340.41
2019-06-08T09:26:13.315Z,101352.84
2019-06-08T09:29:03.076Z,101355.94
2019-06-08T09:31:35.429Z,101355.94
2019-06-08T09:34:24.999Z,101351.74
2019-06-08T09:37:08.897Z,101364.66
2019-06-08T09:39:53.939Z,101369.09
2019-06-08T09:42:37.910Z,101351.71
2019-06-08T09:45:21.327Z,101366.63
2019-06-08T09:47:55.505Z,101369.64
2019-06-08T09:50:29.804Z,101377.02
2019-06-08T09:53:19.999Z,101391.67
2019-06-08T09:55:41.294Z,101387.36
2019-06-08T09:58:13.885Z,101394.13
2019-06-08T10:00:48.585Z,101383.16
2019-06-08T10:03:22.450Z,101400.58
2019-06-08T10:05:58.535Z,101393.50
2019-06-08T10:08:31.218Z,101400.78
2019-06-08T10:11:06.228Z,101404.89
2019-06-08T10:13:43.410Z,101402.70
2019-06-08T10:16:30.680Z,101413.40
2019-06-08T10:19:07.085Z,101417.60
2019-06-08T10:21:49.341Z,101415.22
2019-06-08T10:24:32.991Z,101413.34
2019-06-08T10:27:25.221Z,101421.86
2019-06-08T10:30:10.762Z,101426.23
2019-06-08T10:32:43.782Z,101422.92
2019-06-08T10:35:20.609Z,101426.50
2019-06-08T10:37:55.128Z,101437.36
2019-06-08T10:40:28.590Z,101444.08
2019-06-08T10:43:03.442Z,101448.06
2019-06-08T10:45:51.181Z,101449.82
2019-06-08T10:48:37.756Z,101457.70
2019-06-08T10:51:25.971Z,101451.86
2019-06-08T10:54:11.153Z,101450.23
2019-06-08T10:56:44.315Z,101455.30
2019-06-08T10:59:18.565Z,101461.49
2019-06-08T11:01:52.300Z,101464.00
2019-06-08T11:04:43.759Z,101459.51
2019-06-08T11:07:27.999Z,101456.63
2019-06-08T11:10:03.654Z,101464.94
2019-06-08T11:12:37.741Z,101452.53
2019-06-08T11:15:21.198Z,101459.82
2019-06-08T11:17:59.934Z,101468.56
2019-06-08T11:20:30.643Z,101466.38
2019-06-08T11:23:18.739Z,101469.80
2019-06-08T11:25:52.346Z,101477.88
2019-06-08T11:28:38.182Z,101469.12
2019-06-08T11:31:21.576Z,101464.01
2019-06-08T11:33:58.495Z,101483.12
2019-06-08T11:36:32.046Z,101476.71
2019-06-08T11:39:18.562Z,101485.89
2019-06-08T11:41:51.302Z,101491.59
2019-06-08T11:44:24.662Z,101492.93
2019-06-08T11:47:12.303Z,101488.70
2019-06-08T11:49:42.646Z,101492.93
2019-06-08T11:52:18.458Z,101493.45
2019-06-08T11:54:52.117Z,101484.28
2019-06-08T11:57:40.415Z,101480.09
2019-06-08T12:00:27.535Z,101480.63
2019-06-08T12:03:06.318Z,101481.55
2019-06-08T12:05:40.026Z,101482.77
2019-06-08T12:08:13.296Z,101482.10
2019-06-08T12:10:49.129Z,101487.84
2019-06-08T12:13:21.862Z,101493.02
2019-06-08T12:15:55.752Z,101484.83
2019-06-08T12:18:29.726Z,101500.54
2019-06-08T12:21:03.767Z,101501.39
2019-06-08T12:23:53.240Z,101507.17
2019-06-08T12:26:26.450Z,101488.17
2019-06-08T12:29:01.318Z,101495.77
2019-06-08T12:31:37.710Z,101486.17
2019-06-08T12:34:21.165Z,101491.92
2019-06-08T12:37:05.337Z,101483.30
2019-06-08T12:39:39.885Z,101471.58
2019-06-08T12:42:18.449Z,101481.92
2019-06-08T12:44:48.415Z,101468.81
2019-06-08T12:47:26.894Z,101483.85
2019-06-08T12:49:58.529Z,101479.44
2019-06-08T12:52:32.636Z,101487.62
2019-06-08T12:55:11.807Z,101481.93
2019-06-08T12:57:42.377Z,101483.02
2019-06-08T13:00:19.563Z,101471.58
2019-06-08T13:02:51.297Z,101479.48
2019-06-08T13:05:24.777Z,101482.20
2019-06-08T13:07:59.012Z,101484.66
2019-06-08T13:10:32.537Z,101483.80
2019-06-08T13:13:08.041Z,101493.92
2019-06-08T13:15:41.262Z,101490.66
2019-06-08T13:18:15.215Z,101505.31
2019-06-08T13:21:15.272Z,101505.58
2019-06-08T13:23:34.650Z,101502.51
2019-06-08T13:26:08.908Z,101509.02
2019-06-08T13:28:42.675Z,101512.52
2019-06-08T13:31:18.530Z,101526.16
2019-06-08T13:34:01.962Z,101511.20
2019-06-08T13:36:48.426Z,101517.45
2019-06-08T13:39:22.915Z,101513.34
2019-06-08T13:41:56.954Z,101521.48
2019-06-08T13:44:30.971Z,101515.16
2019-06-08T13:47:04.941Z,101514.83
2019-06-08T13:49:48.901Z,101532.33
2019-06-08T13:52:38.402Z,101535.05
2019-06-08T13:55:40.414Z,101539.41
2019-06-08T13:57:58.095Z,101536.57
2019-06-08T14:00:38.111Z,101553.44
2019-06-08T14:03:21.721Z,101548.44
2019-06-08T14:06:07.985Z,101553.19
2019-06-08T14:08:42.146Z,101560.33
2019-06-08T14:11:25.838Z,101550.93
2019-06-08T14:14:01.380Z,101542.46
2019-06-08T14:16:35.537Z,101547.63
2019-06-08T14:19:09.221Z,101542.45
2019-06-08T14:21:52.863Z,101552.04
2019-06-08T14:24:32.075Z,101570.00
2019-06-08T14:27:12.526Z,101563.20
2019-06-08T14:29:58.198Z,101556.02
2019-06-08T14:32:31.035Z,101577.69
2019-06-08T14:35:04.634Z,101570.70
2019-06-08T14:37:38.447Z,101573.97
2019-06-08T14:40:23.403Z,101583.88
2019-06-08T14:42:58.071Z,101567.29
2019-06-08T14:45:31.565Z,101567.57
2019-06-08T14:48:05.978Z,101557.46
2019-06-08T14:50:40.811Z,101575.17
2019-06-08T14:53:15.925Z,101566.83
2019-06-08T14:56:02.207Z,101555.75
2019-06-08T14:58:29.121Z,101566.91
2019-06-08T15:01:01.969Z,101565.77
2019-06-08T15:03:48.240Z,101557.12
2019-06-08T15:06:21.535Z,101571.09
2019-06-08T15:08:55.207Z,101571.39
2019-06-08T15:11:33.232Z,101564.04
2019-06-08T15:14:13.527Z,101571.95
2019-06-08T15:16:59.016Z,101568.65
2019-06-08T15:19:48.898Z,101575.73
2019-06-08T15:22:32.383Z,101578.44
2019-06-08T15:25:08.256Z,101591.75
2019-06-08T15:27:42.154Z,101583.84
2019-06-08T15:30:17.868Z,101576.48
2019-06-08T15:32:51.539Z,101573.84
2019-06-08T15:35:25.389Z,101570.30
2019-06-08T15:38:08.974Z,101574.11
2019-06-08T15:40:53.026Z,101577.39
2019-06-08T15:43:40.253Z,101577.39
2019-06-08T15:46:13.734Z,101575.72
2019-06-08T15:48:57.178Z,101576.30
2019-06-08T15:51:33.874Z,101571.09
2019-06-08T15:54:07.994Z,101580.03
2019-06-08T15:56:48.658Z,101583.02
2019-06-08T15:59:31.138Z,101581.94
2019-06-08T16:02:02.317Z,101585.14
2019-06-08T16:04:36.504Z,101581.02
2019-06-08T16:07:12.993Z,101591.33
2019-06-08T16:09:46.181Z,101586.42
2019-06-08T16:12:19.346Z,101590.77
2019-06-08T16:15:05.201Z,101591.92
2019-06-08T16:17:59.772Z,101587.03
2019-06-08T16:20:33.675Z,101596.06
2019-06-08T16:23:17.524Z,101587.73
2019-06-08T16:26:05.291Z,101581.78
2019-06-08T16:28:39.487Z,101591.00
2019-06-08T16:31:13.254Z,101587.77
2019-06-08T16:33:47.404Z,101573.59
2019-06-08T16:36:21.027Z,101580.66
2019-06-08T16:38:58.275Z,101586.11
2019-06-08T16:41:41.871Z,101589.41
2019-06-08T16:44:25.391Z,101585.31
2019-06-08T16:46:59.426Z,101589.67
2019-06-08T16:49:33.530Z,101594.84
2019-06-08T16:52:07.091Z,101591.01
2019-06-08T16:54:51.339Z,101591.57
2019-06-08T16:57:25.214Z,101585.25
2019-06-08T17:00:29.238Z,101594.27
2019-06-08T17:02:37.032Z,101598.14
2019-06-08T17:05:12.003Z,101601.39
2019-06-08T17:07:45.560Z,101608.29
2019-06-08T17:10:20.359Z,101603.81
2019-06-08T17:12:54.131Z,101599.71
2019-06-08T17:15:27.759Z,101600.33
2019-06-08T17:18:01.866Z,101595.66
2019-06-08T17:20:36.577Z,101606.59
2019-06-08T17:23:21.305Z,101612.31
2019-06-08T17:26:08.894Z,101613.14
2019-06-08T17:28:42.778Z,101615.54
2019-06-08T17:31:16.749Z,101616.08
2019-06-08T17:33:50.279Z,101625.89
2019-06-08T17:36:24.321Z,101627.45
2019-06-08T17:39:07.850Z,101632.97
2019-06-08T17:41:51.385Z,101636.81
2019-06-08T17:44:24.609Z,101629.91
2019-06-08T17:46:58.612Z,101638.59
2019-06-08T17:49:32.547Z,101626.86
2019-06-08T17:52:16.645Z,101640.53
2019-06-08T17:54:50.819Z,101632.30
2019-06-08T17:57:24.300Z,101638.82
2019-06-08T17:59:57.923Z,101634.99
2019-06-08T18:02:31.919Z,101650.80
2019-06-08T18:05:07.034Z,101649.67
2019-06-08T18:07:43.827Z,101646.68
2019-06-08T18:10:27.744Z,101661.16
2019-06-08T18:13:02.374Z,101660.00
2019-06-08T18:15:38.621Z,101665.96
2019-06-08T18:18:12.693Z,101678.20
2019-06-08T18:20:45.335Z,101705.45
2019-06-08T18:23:17.873Z,101725.08
2019-06-08T18:26:01.504Z,101739.98
2019-06-08T18:28:55.005Z,101740.77
2019-06-08T18:31:48.170Z,101725.78
2019-06-08T18:34:40.241Z,101712.74
2019-06-08T18:37:31.051Z,101715.78
2019-06-08T18:40:21.540Z,101716.44
2019-06-08T18:42:57.849Z,101721.22
2019-06-08T18:45:35.858Z,101709.55
2019-06-08T18:48:10.166Z,101710.41
2019-06-08T18:50:48.547Z,101712.81
2019-06-08T18:53:22.178Z,101707.63
2019-06-08T18:56:08.248Z,101706.89
2019-06-08T18:58:53.679Z,101707.08
2019-06-08T19:01:49.868Z,101717.11
2019-06-08T19:04:30.899Z,101717.46
2019-06-08T19:07:07.887Z,101716.95
2019-06-08T19:09:54.246Z,101717.72
2019-06-08T19:12:28.288Z,101717.72
2019-06-08T19:15:02.343Z,101736.81
2019-06-08T19:17:45.824Z,101729.14
2019-06-08T19:20:13.123Z,101723.16
2019-06-08T19:22:54.340Z,101733.62
2019-06-08T19:25:27.522Z,101724.63
2019-06-08T19:28:17.541Z,101739.09
2019-06-08T19:31:00.666Z,101731.13
2019-06-08T19:33:35.438Z,101736.56
2019-06-08T19:36:20.250Z,101737.97
2019-06-08T19:38:57.592Z,101737.97
2019-06-08T19:41:31.499Z,101744.20
2019-06-08T19:44:07.542Z,101741.74
2019-06-08T19:46:42.364Z,101741.48
2019-06-08T19:49:17.487Z,101736.48
2019-06-08T19:51:53.992Z,101736.48
2019-06-08T19:54:27.437Z,101744.04
2019-06-08T19:57:03.863Z,101744.04
2019-06-08T19:59:49.569Z,101755.66
2019-06-08T20:02:24.387Z,101766.27
2019-06-08T20:05:10.222Z,101770.72
2019-06-08T20:07:47.405Z,101772.99
2019-06-08T20:10:20.845Z,101775.61
2019-06-08T20:12:57.599Z,101781.20
2019-06-08T20:15:47.325Z,101784.81
2019-06-08T20:18:29.345Z,101783.66
2019-06-08T20:21:03.378Z,101791.38
2019-06-08T20:23:41.561Z,101801.73
2019-06-08T20:26:28.743Z,101811.38
2019-06-08T20:29:12.401Z,101822.67
2019-06-08T20:31:51.446Z,101819.91
2019-06-08T20:34:28.490Z,101816.89
2019-06-08T20:37:02.182Z,101819.85
2019-06-08T20:39:38.166Z,101825.28
2019-06-08T20:42:12.130Z,101821.65
2019-06-08T20:44:58.202Z,101836.82
2019-06-08T20:47:31.428Z,101830.59
2019-06-08T20:50:17.486Z,101836.82
2019-06-08T20:53:02.521Z,101838.13
2019-06-08T20:55:40.518Z,101844.05
2019-06-08T20:58:11.767Z,101843.80
2019-06-08T21:00:48.088Z,101854.89
2019-06-08T21:03:27.833Z,101851.50
2019-06-08T21:06:00.357Z,101855.72
2019-06-08T21:08:39.984Z,101854.10
2019-06-08T21:11:13.183Z,101850.55
2019-06-08T21:13:57.475Z,101851.58
2019-06-08T21:16:32.195Z,101861.28
2019-06-08T21:19:22.346Z,101852.56
2019-06-08T21:21:59.314Z,101862.22
2019-06-08T21:24:33.193Z,101867.87
2019-06-08T21:27:08.174Z,101862.34
2019-06-08T21:29:49.161Z,101877.43
2019-06-08T21:32:21.540Z,101874.15
2019-06-08T21:34:55.280Z,101878.37
2019-06-08T21:37:29.606Z,101880.50
2019-06-08T21:40:04.332Z,101868.13
2019-06-08T21:42:39.077Z,101876.73
2019-06-08T21:45:22.204Z,101883.66
2019-06-08T21:47:59.013Z,101893.20
2019-06-08T21:50:43.539Z,101886.05
2019-06-08T21:53:18.222Z,101890.03
2019-06-08T21:56:02.006Z,101896.99
2019-06-08T21:58:33.980Z,101893.06
2019-06-08T22:01:19.487Z,101893.43
2019-06-08T22:03:53.679Z,101902.42
2019-06-08T22:06:27.473Z,101899.01
2019-06-08T22:09:01.609Z,101896.53
2019-06-08T22:11:38.017Z,101893.83
2019-06-08T22:14:11.556Z,101899.82
2019-06-08T22:16:47.375Z,101901.72
2019-06-08T22:19:20.020Z,101900.30
2019-06-08T22:21:56.086Z,101910.08
2019-06-08T22:24:39.156Z,101904.31
2019-06-08T22:27:12.970Z,101916.84
2019-06-08T22:29:48.343Z,101920.63
2019-06-08T22:32:21.426Z,101917.92
2019-06-08T22:34:54.914Z,101916.94
2019-06-08T22:37:29.208Z,101926.58
2019-06-08T22:40:03.671Z,101927.86
2019-06-08T22:42:37.552Z,101918.88
2019-06-08T22:45:11.819Z,101925.11
2019-06-08T22:47:58.607Z,101922.69
2019-06-08T22:50:30.838Z,101928.48
2019-06-08T22:53:21.347Z,101937.12
2019-06-08T22:56:08.084Z,101933.45
2019-06-08T22:58:42.363Z,101936.77
2019-06-08T23:01:27.838Z,101931.05
2019-06-08T23:04:03.894Z,101930.98
2019-06-08T23:06:47.846Z,101938.43
2019-06-08T23:09:22.188Z,101939.64
2019-06-08T23:11:59.595Z,101941.73
2019-06-08T23:14:31.413Z,101940.11
2019-06-08T23:17:14.751Z,101936.62
2019-06-08T23:19:48.718Z,101943.02
2019-06-08T23:22:32.655Z,101941.66
2019-06-08T23:25:18.339Z,101944.01
2019-06-08T23:28:03.340Z,101938.45
2019-06-08T23:30:47.761Z,101939.34
2019-06-08T23:33:21.230Z,101954.64
2019-06-08T23:36:30.530Z,101944.91
2019-06-08T23:38:39.437Z,101954.36
2019-06-08T23:41:12.961Z,101954.52
2019-06-08T23:43:48.056Z,101957.41
2019-06-08T23:46:38.117Z,101959.62
2019-06-08T23:49:22.284Z,101955.72
2019-06-08T23:51:59.470Z,101957.94
2019-06-08T23:54:32.252Z,101958.53
2019-06-08T23:57:15.288Z,101966.14
2019-06-08T23:59:48.533Z,101962.53
